sensor_id;sensor_type;location;lat;lon;timestamp;P1;durP1;ratioP1;P2;durP2;ratioP2
2486;SDS011;1254;49.144;8.212;2022-12-01T00:01:19;11.68;;;8.40;;
2486;SDS011;1254;49.144;8.212;2022-12-01T00:03:47;17.52;;;9.55;;
2486;SDS011;1254;49.144;8.212;2022-12-01T00:06:16;17.13;;;10.50;;
2486;SDS011;1254;49.144;8.212;2022-12-01T00:08:46;18.25;;;9.75;;
2486;SDS011;1254;49.144;8.212;2022-12-01T00:11:35;14.32;;;9.27;;
2486;SDS011;1254;49.144;8.212;2022-12-01T00:14:05;23.20;;;10.45;;
2486;SDS011;1254;49.144;8.212;2022-12-01T00:16:33;18.27;;;10.25;;
2486;SDS011;1254;49.144;8.212;2022-12-01T00:19:01;19.60;;;11.48;;
2486;SDS011;1254;49.144;8.212;2022-12-01T00:21:29;19.25;;;11.38;;
2486;SDS011;1254;49.144;8.212;2022-12-01T00:23:57;21.80;;;12.30;;
2486;SDS011;1254;49.144;8.212;2022-12-01T00:26:25;20.05;;;11.55;;
2486;SDS011;1254;49.144;8.212;2022-12-01T00:28:54;19.50;;;11.80;;
2486;SDS011;1254;49.144;8.212;2022-12-01T00:31:25;18.27;;;10.98;;
2486;SDS011;1254;49.144;8.212;2022-12-01T00:33:53;23.83;;;12.35;;
2486;SDS011;1254;49.144;8.212;2022-12-01T00:36:22;20.95;;;12.07;;
2486;SDS011;1254;49.144;8.212;2022-12-01T00:38:50;19.63;;;12.25;;
2486;SDS011;1254;49.144;8.212;2022-12-01T00:41:19;20.13;;;12.10;;
2486;SDS011;1254;49.144;8.212;2022-12-01T00:43:49;20.38;;;12.90;;
2486;SDS011;1254;49.144;8.212;2022-12-01T00:46:17;21.08;;;13.52;;
2486;SDS011;1254;49.144;8.212;2022-12-01T00:48:46;24.83;;;13.70;;
2486;SDS011;1254;49.144;8.212;2022-12-01T00:51:14;22.80;;;13.25;;
2486;SDS011;1254;49.144;8.212;2022-12-01T00:53:42;22.60;;;13.13;;
2486;SDS011;1254;49.144;8.212;2022-12-01T00:56:11;18.88;;;11.93;;
2486;SDS011;1254;49.144;8.212;2022-12-01T00:58:39;25.50;;;15.07;;
2486;SDS011;1254;49.144;8.212;2022-12-01T01:01:07;21.58;;;13.55;;
2486;SDS011;1254;49.144;8.212;2022-12-01T01:03:35;26.27;;;14.38;;
2486;SDS011;1254;49.144;8.212;2022-12-01T01:06:05;25.75;;;14.60;;
2486;SDS011;1254;49.144;8.212;2022-12-01T01:08:35;29.90;;;15.15;;
2486;SDS011;1254;49.144;8.212;2022-12-01T01:11:03;27.83;;;15.50;;
2486;SDS011;1254;49.144;8.212;2022-12-01T01:13:32;24.25;;;14.50;;
2486;SDS011;1254;49.144;8.212;2022-12-01T01:16:02;20.95;;;13.63;;
2486;SDS011;1254;49.144;8.212;2022-12-01T01:18:31;23.02;;;14.48;;
2486;SDS011;1254;49.144;8.212;2022-12-01T01:21:01;27.40;;;15.05;;
2486;SDS011;1254;49.144;8.212;2022-12-01T01:23:33;23.98;;;13.80;;
2486;SDS011;1254;49.144;8.212;2022-12-01T01:26:01;22.90;;;14.35;;
2486;SDS011;1254;49.144;8.212;2022-12-01T01:28:31;25.17;;;15.60;;
2486;SDS011;1254;49.144;8.212;2022-12-01T01:30:59;22.50;;;14.52;;
2486;SDS011;1254;49.144;8.212;2022-12-01T01:33:30;26.13;;;15.52;;
2486;SDS011;1254;49.144;8.212;2022-12-01T01:35:58;27.63;;;15.70;;
2486;SDS011;1254;49.144;8.212;2022-12-01T01:38:27;26.60;;;15.73;;
2486;SDS011;1254;49.144;8.212;2022-12-01T01:40:57;21.63;;;13.60;;
2486;SDS011;1254;49.144;8.212;2022-12-01T01:43:38;28.92;;;16.88;;
2486;SDS011;1254;49.144;8.212;2022-12-01T01:46:11;28.60;;;16.27;;
2486;SDS011;1254;49.144;8.212;2022-12-01T01:48:42;24.17;;;15.90;;
2486;SDS011;1254;49.144;8.212;2022-12-01T01:51:13;32.83;;;17.38;;
2486;SDS011;1254;49.144;8.212;2022-12-01T01:53:43;27.67;;;16.35;;
2486;SDS011;1254;49.144;8.212;2022-12-01T01:56:14;23.58;;;14.90;;
2486;SDS011;1254;49.144;8.212;2022-12-01T01:58:42;25.80;;;16.52;;
2486;SDS011;1254;49.144;8.212;2022-12-01T02:01:10;26.75;;;15.65;;
2486;SDS011;1254;49.144;8.212;2022-12-01T02:03:38;26.98;;;16.67;;
2486;SDS011;1254;49.144;8.212;2022-12-01T02:06:08;28.27;;;16.33;;
2486;SDS011;1254;49.144;8.212;2022-12-01T02:08:37;35.97;;;17.80;;
2486;SDS011;1254;49.144;8.212;2022-12-01T02:11:21;30.92;;;17.80;;
2486;SDS011;1254;49.144;8.212;2022-12-01T02:14:03;27.50;;;16.75;;
2486;SDS011;1254;49.144;8.212;2022-12-01T02:16:42;25.63;;;15.90;;
2486;SDS011;1254;49.144;8.212;2022-12-01T02:19:24;30.02;;;17.58;;
2486;SDS011;1254;49.144;8.212;2022-12-01T02:22:13;26.35;;;15.93;;
2486;SDS011;1254;49.144;8.212;2022-12-01T02:24:51;28.63;;;17.20;;
2486;SDS011;1254;49.144;8.212;2022-12-01T02:27:42;25.23;;;16.70;;
2486;SDS011;1254;49.144;8.212;2022-12-01T02:30:29;27.92;;;17.15;;
2486;SDS011;1254;49.144;8.212;2022-12-01T02:33:02;31.92;;;18.75;;
2486;SDS011;1254;49.144;8.212;2022-12-01T02:35:35;30.70;;;18.13;;
2486;SDS011;1254;49.144;8.212;2022-12-01T02:38:12;37.75;;;17.60;;
2486;SDS011;1254;49.144;8.212;2022-12-01T02:40:48;23.77;;;16.17;;
2486;SDS011;1254;49.144;8.212;2022-12-01T02:43:22;29.17;;;17.83;;
2486;SDS011;1254;49.144;8.212;2022-12-01T02:45:56;35.20;;;19.08;;
2486;SDS011;1254;49.144;8.212;2022-12-01T02:48:29;29.80;;;16.90;;
2486;SDS011;1254;49.144;8.212;2022-12-01T02:51:00;29.80;;;16.95;;
2486;SDS011;1254;49.144;8.212;2022-12-01T02:53:32;29.42;;;18.10;;
2486;SDS011;1254;49.144;8.212;2022-12-01T02:56:04;31.60;;;18.35;;
2486;SDS011;1254;49.144;8.212;2022-12-01T02:58:33;27.88;;;17.50;;
2486;SDS011;1254;49.144;8.212;2022-12-01T03:01:17;29.40;;;17.30;;
2486;SDS011;1254;49.144;8.212;2022-12-01T03:03:58;30.15;;;17.38;;
2486;SDS011;1254;49.144;8.212;2022-12-01T03:06:35;29.90;;;17.25;;
2486;SDS011;1254;49.144;8.212;2022-12-01T03:09:15;29.45;;;17.88;;
2486;SDS011;1254;49.144;8.212;2022-12-01T03:11:54;30.50;;;17.63;;
2486;SDS011;1254;49.144;8.212;2022-12-01T03:14:31;32.25;;;18.27;;
2486;SDS011;1254;49.144;8.212;2022-12-01T03:17:07;27.95;;;18.30;;
2486;SDS011;1254;49.144;8.212;2022-12-01T03:19:40;35.85;;;18.48;;
2486;SDS011;1254;49.144;8.212;2022-12-01T03:22:12;33.13;;;18.23;;
2486;SDS011;1254;49.144;8.212;2022-12-01T03:24:45;27.73;;;17.20;;
2486;SDS011;1254;49.144;8.212;2022-12-01T03:27:16;36.35;;;20.35;;
2486;SDS011;1254;49.144;8.212;2022-12-01T03:29:48;32.20;;;18.52;;
2486;SDS011;1254;49.144;8.212;2022-12-01T03:32:22;32.78;;;17.70;;
2486;SDS011;1254;49.144;8.212;2022-12-01T03:34:53;35.70;;;18.80;;
2486;SDS011;1254;49.144;8.212;2022-12-01T03:37:25;30.30;;;17.48;;
2486;SDS011;1254;49.144;8.212;2022-12-01T03:39:58;26.80;;;17.02;;
2486;SDS011;1254;49.144;8.212;2022-12-01T03:42:28;27.48;;;16.02;;
2486;SDS011;1254;49.144;8.212;2022-12-01T03:45:03;28.30;;;17.50;;
2486;SDS011;1254;49.144;8.212;2022-12-01T03:47:50;25.73;;;15.00;;
2486;SDS011;1254;49.144;8.212;2022-12-01T03:50:19;30.35;;;17.90;;
2486;SDS011;1254;49.144;8.212;2022-12-01T03:53:20;26.92;;;14.60;;
2486;SDS011;1254;49.144;8.212;2022-12-01T03:55:55;19.50;;;12.88;;
2486;SDS011;1254;49.144;8.212;2022-12-01T03:58:27;22.92;;;13.65;;
2486;SDS011;1254;49.144;8.212;2022-12-01T04:01:00;18.92;;;11.93;;
2486;SDS011;1254;49.144;8.212;2022-12-01T04:03:30;19.30;;;12.05;;
2486;SDS011;1254;49.144;8.212;2022-12-01T04:05:58;18.60;;;13.13;;
2486;SDS011;1254;49.144;8.212;2022-12-01T04:08:26;16.60;;;11.60;;
2486;SDS011;1254;49.144;8.212;2022-12-01T04:10:55;18.50;;;12.10;;
2486;SDS011;1254;49.144;8.212;2022-12-01T04:13:23;21.10;;;13.35;;
2486;SDS011;1254;49.144;8.212;2022-12-01T04:15:52;21.50;;;12.18;;
2486;SDS011;1254;49.144;8.212;2022-12-01T04:18:20;20.55;;;12.38;;
2486;SDS011;1254;49.144;8.212;2022-12-01T04:20:50;20.67;;;12.65;;
2486;SDS011;1254;49.144;8.212;2022-12-01T04:23:18;18.35;;;12.65;;
2486;SDS011;1254;49.144;8.212;2022-12-01T04:26:00;16.90;;;11.57;;
2486;SDS011;1254;49.144;8.212;2022-12-01T04:28:29;20.73;;;12.85;;
2486;SDS011;1254;49.144;8.212;2022-12-01T04:30:57;18.25;;;11.98;;
2486;SDS011;1254;49.144;8.212;2022-12-01T04:33:25;23.05;;;13.25;;
2486;SDS011;1254;49.144;8.212;2022-12-01T04:35:58;21.08;;;12.52;;
2486;SDS011;1254;49.144;8.212;2022-12-01T04:38:26;22.80;;;13.10;;
2486;SDS011;1254;49.144;8.212;2022-12-01T04:41:06;20.50;;;13.10;;
2486;SDS011;1254;49.144;8.212;2022-12-01T04:43:35;21.85;;;11.93;;
2486;SDS011;1254;49.144;8.212;2022-12-01T04:46:06;20.35;;;13.25;;
2486;SDS011;1254;49.144;8.212;2022-12-01T04:49:12;22.17;;;13.75;;
2486;SDS011;1254;49.144;8.212;2022-12-01T04:51:43;21.65;;;12.25;;
2486;SDS011;1254;49.144;8.212;2022-12-01T04:54:11;23.77;;;13.93;;
2486;SDS011;1254;49.144;8.212;2022-12-01T04:56:39;19.70;;;12.70;;
2486;SDS011;1254;49.144;8.212;2022-12-01T04:59:07;23.83;;;13.00;;
2486;SDS011;1254;49.144;8.212;2022-12-01T05:01:35;20.15;;;12.18;;
2486;SDS011;1254;49.144;8.212;2022-12-01T05:04:04;20.90;;;14.23;;
2486;SDS011;1254;49.144;8.212;2022-12-01T05:06:32;21.33;;;12.80;;
2486;SDS011;1254;49.144;8.212;2022-12-01T05:09:01;22.92;;;14.18;;
2486;SDS011;1254;49.144;8.212;2022-12-01T05:11:29;20.27;;;12.43;;
2486;SDS011;1254;49.144;8.212;2022-12-01T05:13:58;22.90;;;13.48;;
2486;SDS011;1254;49.144;8.212;2022-12-01T05:16:26;19.05;;;12.52;;
2486;SDS011;1254;49.144;8.212;2022-12-01T05:18:57;20.67;;;13.00;;
2486;SDS011;1254;49.144;8.212;2022-12-01T05:21:40;19.50;;;12.55;;
2486;SDS011;1254;49.144;8.212;2022-12-01T05:24:11;21.30;;;12.63;;
2486;SDS011;1254;49.144;8.212;2022-12-01T05:26:39;21.35;;;14.02;;
2486;SDS011;1254;49.144;8.212;2022-12-01T05:29:08;20.10;;;14.02;;
2486;SDS011;1254;49.144;8.212;2022-12-01T05:31:37;20.42;;;12.68;;
2486;SDS011;1254;49.144;8.212;2022-12-01T05:34:05;19.30;;;13.50;;
2486;SDS011;1254;49.144;8.212;2022-12-01T05:36:33;24.02;;;12.25;;
2486;SDS011;1254;49.144;8.212;2022-12-01T05:39:02;16.55;;;11.52;;
2486;SDS011;1254;49.144;8.212;2022-12-01T05:41:31;24.55;;;12.70;;
2486;SDS011;1254;49.144;8.212;2022-12-01T05:43:59;16.60;;;11.45;;
2486;SDS011;1254;49.144;8.212;2022-12-01T05:46:27;19.15;;;13.25;;
2486;SDS011;1254;49.144;8.212;2022-12-01T05:48:55;18.38;;;12.10;;
2486;SDS011;1254;49.144;8.212;2022-12-01T05:51:23;23.17;;;12.43;;
2486;SDS011;1254;49.144;8.212;2022-12-01T05:53:51;20.48;;;11.73;;
2486;SDS011;1254;49.144;8.212;2022-12-01T05:56:19;19.63;;;11.65;;
2486;SDS011;1254;49.144;8.212;2022-12-01T05:58:48;20.13;;;11.32;;
2486;SDS011;1254;49.144;8.212;2022-12-01T06:01:17;19.67;;;12.77;;
2486;SDS011;1254;49.144;8.212;2022-12-01T06:03:47;15.60;;;10.57;;
2486;SDS011;1254;49.144;8.212;2022-12-01T06:06:18;16.17;;;10.95;;
2486;SDS011;1254;49.144;8.212;2022-12-01T06:09:00;21.38;;;11.57;;
2486;SDS011;1254;49.144;8.212;2022-12-01T06:12:12;15.82;;;11.00;;
2486;SDS011;1254;49.144;8.212;2022-12-01T06:14:42;18.95;;;11.45;;
2486;SDS011;1254;49.144;8.212;2022-12-01T06:17:10;19.08;;;11.43;;
2486;SDS011;1254;49.144;8.212;2022-12-01T06:19:38;17.42;;;11.05;;
2486;SDS011;1254;49.144;8.212;2022-12-01T06:22:06;17.77;;;11.50;;
2486;SDS011;1254;49.144;8.212;2022-12-01T06:24:34;21.52;;;13.65;;
2486;SDS011;1254;49.144;8.212;2022-12-01T06:27:02;14.55;;;11.05;;
2486;SDS011;1254;49.144;8.212;2022-12-01T06:29:30;21.92;;;13.57;;
2486;SDS011;1254;49.144;8.212;2022-12-01T06:31:59;17.15;;;11.45;;
2486;SDS011;1254;49.144;8.212;2022-12-01T06:34:27;17.52;;;10.77;;
2486;SDS011;1254;49.144;8.212;2022-12-01T06:36:55;17.40;;;12.10;;
2486;SDS011;1254;49.144;8.212;2022-12-01T06:39:23;17.52;;;10.65;;
2486;SDS011;1254;49.144;8.212;2022-12-01T06:41:51;21.00;;;12.32;;
2486;SDS011;1254;49.144;8.212;2022-12-01T06:44:19;23.42;;;11.70;;
2486;SDS011;1254;49.144;8.212;2022-12-01T06:46:47;22.98;;;12.93;;
2486;SDS011;1254;49.144;8.212;2022-12-01T06:49:19;20.30;;;13.15;;
2486;SDS011;1254;49.144;8.212;2022-12-01T06:51:47;20.05;;;12.23;;
2486;SDS011;1254;49.144;8.212;2022-12-01T06:54:16;19.02;;;12.05;;
2486;SDS011;1254;49.144;8.212;2022-12-01T06:56:44;18.73;;;11.25;;
2486;SDS011;1254;49.144;8.212;2022-12-01T06:59:12;17.10;;;10.32;;
2486;SDS011;1254;49.144;8.212;2022-12-01T07:01:40;18.90;;;11.57;;
2486;SDS011;1254;49.144;8.212;2022-12-01T07:04:08;22.83;;;12.73;;
2486;SDS011;1254;49.144;8.212;2022-12-01T07:06:39;16.98;;;11.07;;
2486;SDS011;1254;49.144;8.212;2022-12-01T07:09:32;17.40;;;11.13;;
2486;SDS011;1254;49.144;8.212;2022-12-01T07:12:05;19.08;;;12.80;;
2486;SDS011;1254;49.144;8.212;2022-12-01T07:14:34;16.70;;;11.00;;
2486;SDS011;1254;49.144;8.212;2022-12-01T07:17:03;21.25;;;13.48;;
2486;SDS011;1254;49.144;8.212;2022-12-01T07:19:30;18.70;;;11.63;;
2486;SDS011;1254;49.144;8.212;2022-12-01T07:22:00;32.60;;;11.95;;
2486;SDS011;1254;49.144;8.212;2022-12-01T07:24:28;24.25;;;13.05;;
2486;SDS011;1254;49.144;8.212;2022-12-01T07:26:56;26.75;;;13.93;;
2486;SDS011;1254;49.144;8.212;2022-12-01T07:29:23;18.92;;;12.25;;
2486;SDS011;1254;49.144;8.212;2022-12-01T07:31:51;18.10;;;11.23;;
2486;SDS011;1254;49.144;8.212;2022-12-01T07:34:19;23.35;;;11.77;;
2486;SDS011;1254;49.144;8.212;2022-12-01T07:36:47;21.10;;;12.65;;
2486;SDS011;1254;49.144;8.212;2022-12-01T07:39:17;18.25;;;12.10;;
2486;SDS011;1254;49.144;8.212;2022-12-01T07:41:45;20.85;;;12.38;;
2486;SDS011;1254;49.144;8.212;2022-12-01T07:44:13;18.38;;;12.70;;
2486;SDS011;1254;49.144;8.212;2022-12-01T07:46:42;18.73;;;11.70;;
2486;SDS011;1254;49.144;8.212;2022-12-01T07:49:09;18.80;;;12.20;;
2486;SDS011;1254;49.144;8.212;2022-12-01T07:51:40;20.23;;;12.38;;
2486;SDS011;1254;49.144;8.212;2022-12-01T07:54:08;17.55;;;11.40;;
2486;SDS011;1254;49.144;8.212;2022-12-01T07:56:40;17.02;;;11.40;;
2486;SDS011;1254;49.144;8.212;2022-12-01T07:59:09;16.08;;;10.95;;
2486;SDS011;1254;49.144;8.212;2022-12-01T08:01:37;19.63;;;10.73;;
2486;SDS011;1254;49.144;8.212;2022-12-01T08:04:05;19.45;;;11.80;;
2486;SDS011;1254;49.144;8.212;2022-12-01T08:06:33;21.83;;;12.43;;
2486;SDS011;1254;49.144;8.212;2022-12-01T08:09:01;20.70;;;13.25;;
2486;SDS011;1254;49.144;8.212;2022-12-01T08:11:29;20.13;;;11.63;;
2486;SDS011;1254;49.144;8.212;2022-12-01T08:13:58;17.73;;;12.25;;
2486;SDS011;1254;49.144;8.212;2022-12-01T08:16:27;17.92;;;11.55;;
2486;SDS011;1254;49.144;8.212;2022-12-01T08:18:56;16.45;;;11.65;;
2486;SDS011;1254;49.144;8.212;2022-12-01T08:21:24;27.00;;;14.52;;
2486;SDS011;1254;49.144;8.212;2022-12-01T08:23:57;20.52;;;13.77;;
2486;SDS011;1254;49.144;8.212;2022-12-01T08:26:25;19.75;;;13.13;;
2486;SDS011;1254;49.144;8.212;2022-12-01T08:28:53;22.30;;;14.63;;
2486;SDS011;1254;49.144;8.212;2022-12-01T08:31:23;18.00;;;12.07;;
2486;SDS011;1254;49.144;8.212;2022-12-01T08:33:53;17.55;;;11.75;;
2486;SDS011;1254;49.144;8.212;2022-12-01T08:36:21;26.02;;;13.50;;
2486;SDS011;1254;49.144;8.212;2022-12-01T08:38:51;23.48;;;12.93;;
2486;SDS011;1254;49.144;8.212;2022-12-01T08:41:20;27.25;;;16.75;;
2486;SDS011;1254;49.144;8.212;2022-12-01T08:43:49;25.08;;;16.60;;
2486;SDS011;1254;49.144;8.212;2022-12-01T08:46:17;21.50;;;14.05;;
2486;SDS011;1254;49.144;8.212;2022-12-01T08:48:46;23.05;;;13.13;;
2486;SDS011;1254;49.144;8.212;2022-12-01T08:51:15;25.55;;;14.25;;
2486;SDS011;1254;49.144;8.212;2022-12-01T08:53:45;21.52;;;13.45;;
2486;SDS011;1254;49.144;8.212;2022-12-01T08:56:15;21.20;;;13.95;;
2486;SDS011;1254;49.144;8.212;2022-12-01T08:58:44;18.95;;;12.68;;
2486;SDS011;1254;49.144;8.212;2022-12-01T09:01:18;18.38;;;11.50;;
2486;SDS011;1254;49.144;8.212;2022-12-01T09:04:00;17.35;;;11.45;;
2486;SDS011;1254;49.144;8.212;2022-12-01T09:06:34;19.50;;;12.52;;
2486;SDS011;1254;49.144;8.212;2022-12-01T09:09:05;17.75;;;10.45;;
2486;SDS011;1254;49.144;8.212;2022-12-01T09:11:34;29.02;;;12.95;;
2486;SDS011;1254;49.144;8.212;2022-12-01T09:14:02;21.33;;;11.32;;
2486;SDS011;1254;49.144;8.212;2022-12-01T09:16:30;17.42;;;11.77;;
2486;SDS011;1254;49.144;8.212;2022-12-01T09:18:59;18.13;;;11.13;;
2486;SDS011;1254;49.144;8.212;2022-12-01T09:21:28;23.70;;;11.90;;
2486;SDS011;1254;49.144;8.212;2022-12-01T09:23:57;21.23;;;11.63;;
2486;SDS011;1254;49.144;8.212;2022-12-01T09:26:26;22.92;;;10.85;;
2486;SDS011;1254;49.144;8.212;2022-12-01T09:28:55;20.15;;;12.13;;
2486;SDS011;1254;49.144;8.212;2022-12-01T09:31:24;19.80;;;11.80;;
2486;SDS011;1254;49.144;8.212;2022-12-01T09:33:53;19.05;;;12.07;;
2486;SDS011;1254;49.144;8.212;2022-12-01T09:36:23;22.88;;;12.73;;
2486;SDS011;1254;49.144;8.212;2022-12-01T09:38:52;20.60;;;11.93;;
2486;SDS011;1254;49.144;8.212;2022-12-01T09:41:21;22.50;;;13.25;;
2486;SDS011;1254;49.144;8.212;2022-12-01T09:43:55;17.85;;;11.48;;
2486;SDS011;1254;49.144;8.212;2022-12-01T09:46:33;24.85;;;12.50;;
2486;SDS011;1254;49.144;8.212;2022-12-01T09:49:41;18.92;;;12.00;;
2486;SDS011;1254;49.144;8.212;2022-12-01T09:52:17;20.58;;;12.75;;
2486;SDS011;1254;49.144;8.212;2022-12-01T09:54:51;26.67;;;13.35;;
2486;SDS011;1254;49.144;8.212;2022-12-01T09:57:24;22.92;;;11.20;;
2486;SDS011;1254;49.144;8.212;2022-12-01T09:59:56;18.42;;;10.70;;
2486;SDS011;1254;49.144;8.212;2022-12-01T10:02:28;19.38;;;12.00;;
2486;SDS011;1254;49.144;8.212;2022-12-01T10:05:01;22.90;;;12.70;;
2486;SDS011;1254;49.144;8.212;2022-12-01T10:07:34;19.23;;;12.02;;
2486;SDS011;1254;49.144;8.212;2022-12-01T10:10:06;18.67;;;12.40;;
2486;SDS011;1254;49.144;8.212;2022-12-01T10:12:39;25.08;;;12.00;;
2486;SDS011;1254;49.144;8.212;2022-12-01T10:15:13;19.55;;;12.40;;
2486;SDS011;1254;49.144;8.212;2022-12-01T10:17:46;21.83;;;13.00;;
2486;SDS011;1254;49.144;8.212;2022-12-01T10:20:20;17.50;;;11.15;;
2486;SDS011;1254;49.144;8.212;2022-12-01T10:25:54;21.52;;;13.55;;
2486;SDS011;1254;49.144;8.212;2022-12-01T10:28:30;21.05;;;12.23;;
2486;SDS011;1254;49.144;8.212;2022-12-01T10:31:17;21.63;;;12.38;;
2486;SDS011;1254;49.144;8.212;2022-12-01T10:33:49;30.45;;;12.50;;
2486;SDS011;1254;49.144;8.212;2022-12-01T10:36:25;21.85;;;13.10;;
2486;SDS011;1254;49.144;8.212;2022-12-01T10:38:56;22.42;;;13.35;;
2486;SDS011;1254;49.144;8.212;2022-12-01T10:41:28;23.33;;;12.88;;
2486;SDS011;1254;49.144;8.212;2022-12-01T10:43:59;27.38;;;12.90;;
2486;SDS011;1254;49.144;8.212;2022-12-01T10:46:32;22.95;;;14.60;;
2486;SDS011;1254;49.144;8.212;2022-12-01T10:49:07;21.77;;;13.30;;
2486;SDS011;1254;49.144;8.212;2022-12-01T10:51:47;24.58;;;13.75;;
2486;SDS011;1254;49.144;8.212;2022-12-01T10:54:21;30.42;;;13.32;;
2486;SDS011;1254;49.144;8.212;2022-12-01T10:56:53;23.90;;;14.05;;
2486;SDS011;1254;49.144;8.212;2022-12-01T10:59:32;25.65;;;12.20;;
2486;SDS011;1254;49.144;8.212;2022-12-01T11:02:13;23.70;;;13.15;;
2486;SDS011;1254;49.144;8.212;2022-12-01T11:04:50;20.85;;;13.27;;
2486;SDS011;1254;49.144;8.212;2022-12-01T11:07:21;26.17;;;14.95;;
2486;SDS011;1254;49.144;8.212;2022-12-01T11:09:58;22.90;;;14.60;;
2486;SDS011;1254;49.144;8.212;2022-12-01T11:12:40;20.65;;;12.88;;
2486;SDS011;1254;49.144;8.212;2022-12-01T11:15:17;24.63;;;14.15;;
2486;SDS011;1254;49.144;8.212;2022-12-01T11:17:48;25.95;;;14.15;;
2486;SDS011;1254;49.144;8.212;2022-12-01T11:20:25;30.48;;;13.32;;
2486;SDS011;1254;49.144;8.212;2022-12-01T11:28:51;40.60;;;13.50;;
2486;SDS011;1254;49.144;8.212;2022-12-01T11:31:21;26.35;;;14.38;;
2486;SDS011;1254;49.144;8.212;2022-12-01T11:34:00;23.20;;;14.32;;
2486;SDS011;1254;49.144;8.212;2022-12-01T11:36:30;22.73;;;12.68;;
2486;SDS011;1254;49.144;8.212;2022-12-01T11:39:03;23.23;;;12.65;;
2486;SDS011;1254;49.144;8.212;2022-12-01T11:41:36;18.83;;;12.95;;
2486;SDS011;1254;49.144;8.212;2022-12-01T11:44:14;27.27;;;13.95;;
2486;SDS011;1254;49.144;8.212;2022-12-01T11:46:45;21.35;;;13.45;;
2486;SDS011;1254;49.144;8.212;2022-12-01T11:49:15;23.58;;;13.57;;
2486;SDS011;1254;49.144;8.212;2022-12-01T11:51:44;22.75;;;13.80;;
2486;SDS011;1254;49.144;8.212;2022-12-01T11:54:19;20.50;;;14.13;;
2486;SDS011;1254;49.144;8.212;2022-12-01T11:56:59;20.67;;;12.02;;
2486;SDS011;1254;49.144;8.212;2022-12-01T11:59:27;19.27;;;12.13;;
2486;SDS011;1254;49.144;8.212;2022-12-01T12:01:58;24.10;;;13.30;;
2486;SDS011;1254;49.144;8.212;2022-12-01T12:04:38;24.38;;;14.45;;
2486;SDS011;1254;49.144;8.212;2022-12-01T12:07:16;22.33;;;13.77;;
2486;SDS011;1254;49.144;8.212;2022-12-01T12:10:02;20.55;;;13.35;;
2486;SDS011;1254;49.144;8.212;2022-12-01T12:13:02;23.85;;;14.10;;
2486;SDS011;1254;49.144;8.212;2022-12-01T12:15:42;23.77;;;13.50;;
2486;SDS011;1254;49.144;8.212;2022-12-01T12:18:25;22.38;;;14.00;;
2486;SDS011;1254;49.144;8.212;2022-12-01T12:21:07;23.60;;;14.90;;
2486;SDS011;1254;49.144;8.212;2022-12-01T12:24:00;23.92;;;13.30;;
2486;SDS011;1254;49.144;8.212;2022-12-01T12:26:56;28.08;;;14.77;;
2486;SDS011;1254;49.144;8.212;2022-12-01T12:29:35;28.52;;;15.20;;
2486;SDS011;1254;49.144;8.212;2022-12-01T12:32:15;24.00;;;14.52;;
2486;SDS011;1254;49.144;8.212;2022-12-01T12:35:00;27.23;;;14.85;;
2486;SDS011;1254;49.144;8.212;2022-12-01T12:37:43;25.63;;;15.35;;
2486;SDS011;1254;49.144;8.212;2022-12-01T12:40:21;19.48;;;13.23;;
2486;SDS011;1254;49.144;8.212;2022-12-01T12:43:02;22.65;;;13.77;;
2486;SDS011;1254;49.144;8.212;2022-12-01T12:45:51;23.20;;;13.48;;
2486;SDS011;1254;49.144;8.212;2022-12-01T12:48:46;23.85;;;14.38;;
2486;SDS011;1254;49.144;8.212;2022-12-01T12:51:27;20.10;;;13.70;;
2486;SDS011;1254;49.144;8.212;2022-12-01T12:56:47;21.48;;;12.55;;
2486;SDS011;1254;49.144;8.212;2022-12-01T12:59:22;18.42;;;11.65;;
2486;SDS011;1254;49.144;8.212;2022-12-01T13:01:58;21.15;;;12.77;;
2486;SDS011;1254;49.144;8.212;2022-12-01T13:04:31;27.77;;;13.50;;
2486;SDS011;1254;49.144;8.212;2022-12-01T13:07:07;23.42;;;14.48;;
2486;SDS011;1254;49.144;8.212;2022-12-01T13:09:40;24.08;;;12.68;;
2486;SDS011;1254;49.144;8.212;2022-12-01T13:12:12;22.65;;;13.25;;
2486;SDS011;1254;49.144;8.212;2022-12-01T13:14:44;23.20;;;13.25;;
2486;SDS011;1254;49.144;8.212;2022-12-01T13:17:18;24.83;;;12.10;;
2486;SDS011;1254;49.144;8.212;2022-12-01T13:19:49;21.77;;;13.88;;
2486;SDS011;1254;49.144;8.212;2022-12-01T13:22:18;29.73;;;13.07;;
2486;SDS011;1254;49.144;8.212;2022-12-01T13:24:50;19.25;;;12.48;;
2486;SDS011;1254;49.144;8.212;2022-12-01T13:27:19;26.88;;;14.70;;
2486;SDS011;1254;49.144;8.212;2022-12-01T13:29:49;21.55;;;13.07;;
2486;SDS011;1254;49.144;8.212;2022-12-01T13:32:31;20.80;;;12.85;;
2486;SDS011;1254;49.144;8.212;2022-12-01T13:35:02;25.05;;;14.15;;
2486;SDS011;1254;49.144;8.212;2022-12-01T13:37:32;22.75;;;13.23;;
2486;SDS011;1254;49.144;8.212;2022-12-01T13:40:06;25.88;;;12.82;;
2486;SDS011;1254;49.144;8.212;2022-12-01T13:42:37;23.50;;;13.52;;
2486;SDS011;1254;49.144;8.212;2022-12-01T13:45:09;19.63;;;11.32;;
2486;SDS011;1254;49.144;8.212;2022-12-01T13:47:49;25.88;;;13.60;;
2486;SDS011;1254;49.144;8.212;2022-12-01T13:53:27;22.00;;;12.48;;
2486;SDS011;1254;49.144;8.212;2022-12-01T13:55:59;25.92;;;14.68;;
2486;SDS011;1254;49.144;8.212;2022-12-01T13:58:52;20.02;;;11.77;;
2486;SDS011;1254;49.144;8.212;2022-12-01T14:04:36;19.85;;;13.00;;
2486;SDS011;1254;49.144;8.212;2022-12-01T14:07:25;22.25;;;13.98;;
2486;SDS011;1254;49.144;8.212;2022-12-01T14:10:11;22.58;;;12.77;;
2486;SDS011;1254;49.144;8.212;2022-12-01T14:12:50;21.25;;;13.10;;
2486;SDS011;1254;49.144;8.212;2022-12-01T14:15:23;20.02;;;12.20;;
2486;SDS011;1254;49.144;8.212;2022-12-01T14:18:04;22.08;;;12.68;;
2486;SDS011;1254;49.144;8.212;2022-12-01T14:20:43;24.42;;;14.05;;
2486;SDS011;1254;49.144;8.212;2022-12-01T14:23:23;18.60;;;12.07;;
2486;SDS011;1254;49.144;8.212;2022-12-01T14:26:04;22.63;;;13.23;;
2486;SDS011;1254;49.144;8.212;2022-12-01T14:32:03;17.00;;;11.55;;
2486;SDS011;1254;49.144;8.212;2022-12-01T14:34:44;21.02;;;12.48;;
2486;SDS011;1254;49.144;8.212;2022-12-01T14:37:18;20.92;;;13.57;;
2486;SDS011;1254;49.144;8.212;2022-12-01T14:40:05;26.55;;;14.55;;
2486;SDS011;1254;49.144;8.212;2022-12-01T14:42:52;23.27;;;13.85;;
2486;SDS011;1254;49.144;8.212;2022-12-01T14:45:52;17.88;;;12.65;;
2486;SDS011;1254;49.144;8.212;2022-12-01T14:48:34;23.27;;;14.07;;
2486;SDS011;1254;49.144;8.212;2022-12-01T14:51:26;25.90;;;14.55;;
2486;SDS011;1254;49.144;8.212;2022-12-01T14:53:59;20.77;;;13.45;;
2486;SDS011;1254;49.144;8.212;2022-12-01T14:56:43;24.90;;;13.48;;
2486;SDS011;1254;49.144;8.212;2022-12-01T14:59:35;19.25;;;12.80;;
2486;SDS011;1254;49.144;8.212;2022-12-01T15:02:28;17.75;;;12.18;;
2486;SDS011;1254;49.144;8.212;2022-12-01T15:05:24;21.33;;;12.52;;
2486;SDS011;1254;49.144;8.212;2022-12-01T15:07:57;20.50;;;12.57;;
2486;SDS011;1254;49.144;8.212;2022-12-01T15:10:31;22.52;;;12.40;;
2486;SDS011;1254;49.144;8.212;2022-12-01T15:13:10;17.73;;;11.60;;
2486;SDS011;1254;49.144;8.212;2022-12-01T15:15:48;19.80;;;11.65;;
2486;SDS011;1254;49.144;8.212;2022-12-01T15:18:21;22.50;;;12.77;;
2486;SDS011;1254;49.144;8.212;2022-12-01T15:20:50;22.92;;;12.25;;
2486;SDS011;1254;49.144;8.212;2022-12-01T15:23:24;19.27;;;13.02;;
2486;SDS011;1254;49.144;8.212;2022-12-01T15:25:54;27.58;;;13.05;;
2486;SDS011;1254;49.144;8.212;2022-12-01T15:28:28;19.83;;;11.73;;
2486;SDS011;1254;49.144;8.212;2022-12-01T15:30:59;20.23;;;12.00;;
2486;SDS011;1254;49.144;8.212;2022-12-01T15:33:31;19.25;;;12.68;;
2486;SDS011;1254;49.144;8.212;2022-12-01T15:36:00;29.90;;;15.23;;
2486;SDS011;1254;49.144;8.212;2022-12-01T15:38:30;25.77;;;12.00;;
2486;SDS011;1254;49.144;8.212;2022-12-01T15:41:01;22.30;;;13.10;;
2486;SDS011;1254;49.144;8.212;2022-12-01T15:43:50;20.17;;;12.00;;
2486;SDS011;1254;49.144;8.212;2022-12-01T15:46:38;21.52;;;13.35;;